createdAt,value
2019-03-18T00:01:18.267Z,16.97
2019-03-18T00:06:18.012Z,17.05
2019-03-18T00:11:30.438Z,18.15
2019-03-18T00:16:29.575Z,18.80
2019-03-18T00:21:42.191Z,14.65
2019-03-18T00:26:33.200Z,17.78
2019-03-18T00:31:50.135Z,15.65
2019-03-18T00:36:43.375Z,13.44
2019-03-18T00:41:50.731Z,17.17
2019-03-18T00:46:53.715Z,15.34
2019-03-18T00:51:56.804Z,17.08
2019-03-18T00:56:56.222Z,20.23
2019-03-18T01:02:06.907Z,15.08
2019-03-18T01:07:06.603Z,14.14
2019-03-18T01:12:24.879Z,14.59
2019-03-18T01:17:30.540Z,15.82
2019-03-18T01:22:31.457Z,15.58
2019-03-18T01:27:32.886Z,12.53
2019-03-18T01:32:41.345Z,12.53
2019-03-18T01:37:43.345Z,13.47
2019-03-18T01:47:48.683Z,16.34
2019-03-18T01:52:55.231Z,14.23
2019-03-18T01:57:53.913Z,12.85
2019-03-18T02:02:55.302Z,11.78
2019-03-18T02:07:59.316Z,11.46
2019-03-18T02:13:02.977Z,13.74
2019-03-18T02:18:02.545Z,14.65
2019-03-18T02:23:17.598Z,16.68
2019-03-18T02:28:17.714Z,15.29
2019-03-18T02:33:16.069Z,16.80
2019-03-18T02:38:26.328Z,15.48
2019-03-18T02:43:33.576Z,15.55
2019-03-18T02:48:43.424Z,14.08
2019-03-18T02:53:55.771Z,15.71
2019-03-18T02:58:58.244Z,13.69
2019-03-18T03:03:58.148Z,14.00
2019-03-18T03:08:58.208Z,12.00
2019-03-18T03:13:56.383Z,11.76
2019-03-18T03:19:14.919Z,11.34
2019-03-18T03:24:14.646Z,11.38
2019-03-18T03:29:17.537Z,9.28
2019-03-18T03:34:17.158Z,10.36
2019-03-18T03:39:15.693Z,13.09
2019-03-18T03:44:25.297Z,16.88
2019-03-18T03:49:35.465Z,14.97
2019-03-18T03:54:36.332Z,10.69
2019-03-18T03:59:36.081Z,12.49
2019-03-18T04:04:45.532Z,12.12
2019-03-18T04:09:54.442Z,11.92
2019-03-18T04:15:02.592Z,11.37
2019-03-18T04:20:20.054Z,12.89
2019-03-18T04:25:29.537Z,9.57
2019-03-18T04:30:50.607Z,10.65
2019-03-18T04:35:44.450Z,11.39
2019-03-18T04:40:48.732Z,11.39
2019-03-18T04:45:56.593Z,12.23
2019-03-18T04:56:03.711Z,10.46
2019-03-18T05:01:15.634Z,10.12
2019-03-18T05:06:18.611Z,8.61
2019-03-18T05:11:20.042Z,7.84
2019-03-18T05:16:22.808Z,11.03
2019-03-18T05:21:27.998Z,9.99
2019-03-18T05:26:22.316Z,11.33
2019-03-18T05:31:40.381Z,12.01
2019-03-18T05:36:28.517Z,11.99
2019-03-18T05:41:27.755Z,10.09
2019-03-18T05:46:41.505Z,10.04
2019-03-18T05:51:42.950Z,10.20
2019-03-18T05:56:44.481Z,9.59
2019-03-18T06:01:46.398Z,9.49
2019-03-18T06:06:46.158Z,9.48
2019-03-18T06:11:58.788Z,9.24
2019-03-18T06:16:49.878Z,10.88
2019-03-18T06:21:49.400Z,9.84
2019-03-18T06:27:02.292Z,10.43
2019-03-18T06:32:09.471Z,11.96
2019-03-18T06:37:10.115Z,12.08
2019-03-18T06:42:13.492Z,9.01
2019-03-18T06:47:17.742Z,11.54
2019-03-18T06:52:27.359Z,11.24
2019-03-18T06:57:29.010Z,10.39
2019-03-18T07:02:32.242Z,7.40
2019-03-18T07:07:43.087Z,8.41
2019-03-18T07:12:33.733Z,9.72
2019-03-18T07:17:42.714Z,11.09
2019-03-18T07:22:49.429Z,8.69
2019-03-18T07:27:46.994Z,8.68
2019-03-18T07:33:05.457Z,9.95
2019-03-18T07:38:13.695Z,8.65
2019-03-18T07:43:26.547Z,9.71
2019-03-18T07:48:15.186Z,8.10
2019-03-18T07:53:28.316Z,8.36
2019-03-18T07:58:25.766Z,9.12
2019-03-18T08:03:41.033Z,7.68
2019-03-18T08:08:40.081Z,10.60
2019-03-18T08:13:43.979Z,10.58
2019-03-18T08:18:43.581Z,10.36
2019-03-18T08:24:00.267Z,13.04
2019-03-18T08:29:01.588Z,10.08
2019-03-18T08:34:14.214Z,10.55
2019-03-18T08:39:07.902Z,9.31
2019-03-18T08:44:11.722Z,8.44
2019-03-18T08:49:16.572Z,7.08
2019-03-18T08:54:20.975Z,9.96
2019-03-18T08:59:21.149Z,9.19
2019-03-18T09:04:33.391Z,10.15
2019-03-18T09:09:23.589Z,8.96
2019-03-18T09:14:26.414Z,8.94
2019-03-18T09:19:24.609Z,10.19
2019-03-18T09:24:33.805Z,13.39
2019-03-18T09:29:45.427Z,8.19
2019-03-18T09:34:45.203Z,9.30
2019-03-18T09:39:56.786Z,10.61
2019-03-18T09:44:55.213Z,11.72
2019-03-18T09:50:12.703Z,7.77
2019-03-18T09:55:21.237Z,9.45
2019-03-18T10:00:29.813Z,9.82
2019-03-18T10:05:38.113Z,10.19
2019-03-18T10:10:50.250Z,8.62
2019-03-18T10:15:55.109Z,8.93
2019-03-18T10:20:50.279Z,7.74
2019-03-18T10:26:00.024Z,7.87
2019-03-18T10:31:04.125Z,6.21
2019-03-18T10:35:54.279Z,11.40
2019-03-18T10:41:05.683Z,8.04
2019-03-18T10:46:12.344Z,8.62
2019-03-18T10:51:10.670Z,8.47
2019-03-18T10:56:12.924Z,6.96
2019-03-18T11:01:27.583Z,8.82
2019-03-18T11:06:35.279Z,11.99
2019-03-18T11:11:24.629Z,8.44
2019-03-18T11:16:31.263Z,8.59
2019-03-18T11:21:29.541Z,8.70
2019-03-18T11:26:32.208Z,14.04
2019-03-18T11:31:43.942Z,10.13
2019-03-18T11:36:36.639Z,5.36
2019-03-18T11:41:38.487Z,7.98
2019-03-18T11:46:42.022Z,9.13
2019-03-18T11:51:44.578Z,8.56
2019-03-18T11:56:59.332Z,7.43
2019-03-18T12:01:49.030Z,8.03
2019-03-18T12:06:48.758Z,7.23
2019-03-18T12:12:03.228Z,6.82
2019-03-18T12:17:04.201Z,8.30
2019-03-18T12:22:07.239Z,6.91
2019-03-18T12:27:13.671Z,7.56
2019-03-18T12:32:17.882Z,6.71
2019-03-18T12:37:25.207Z,6.63
2019-03-18T12:42:22.505Z,5.68
2019-03-18T12:47:32.375Z,4.96
2019-03-18T12:52:36.548Z,5.64
2019-03-18T12:57:40.151Z,6.26
2019-03-18T13:02:41.666Z,4.53
2019-03-18T13:07:53.565Z,4.66
2019-03-18T13:12:44.534Z,5.70
2019-03-18T13:17:44.441Z,5.26
2019-03-18T13:23:01.891Z,4.32
2019-03-18T13:28:02.246Z,5.44
2019-03-18T13:33:14.927Z,4.16
2019-03-18T13:38:08.326Z,5.26
2019-03-18T13:43:20.011Z,4.99
2019-03-18T13:48:11.423Z,6.40
2019-03-18T13:53:24.954Z,5.91
2019-03-18T13:58:13.732Z,6.91
2019-03-18T14:03:25.755Z,5.16
2019-03-18T14:08:25.795Z,7.22
2019-03-18T14:13:40.616Z,5.90
2019-03-18T14:18:42.669Z,6.73
2019-03-18T14:23:48.947Z,4.77
2019-03-18T14:28:50.719Z,6.10
2019-03-18T14:33:49.736Z,4.93
2019-03-18T14:39:04.135Z,4.88
2019-03-18T14:44:10.015Z,4.89
2019-03-18T14:49:13.739Z,4.39
2019-03-18T14:54:15.707Z,4.89
2019-03-18T14:59:19.334Z,5.04
2019-03-18T15:04:25.577Z,5.86
2019-03-18T15:09:29.202Z,7.34
2019-03-18T15:14:31.091Z,9.58
2019-03-18T15:19:30.888Z,9.40
2019-03-18T15:24:31.749Z,12.24
2019-03-18T15:29:37.528Z,11.61
2019-03-18T15:34:41.282Z,9.79
2019-03-18T15:39:40.837Z,10.39
2019-03-18T15:44:50.655Z,15.70
2019-03-18T15:50:07.161Z,11.32
2019-03-18T15:55:08.169Z,9.55
2019-03-18T16:00:25.815Z,14.54
2019-03-18T16:05:22.296Z,11.85
2019-03-18T16:10:36.529Z,14.54
2019-03-18T16:15:37.293Z,15.63
2019-03-18T16:20:51.517Z,11.26
2019-03-18T16:31:01.839Z,14.88
2019-03-18T16:35:50.191Z,13.58
2019-03-18T16:41:13.877Z,15.57
2019-03-18T16:46:10.704Z,14.73
2019-03-18T16:51:15.798Z,13.08
2019-03-18T17:01:39.563Z,20.08
2019-03-18T17:06:30.554Z,16.40
2019-03-18T17:11:35.759Z,16.13
2019-03-18T17:16:44.181Z,16.18
2019-03-18T17:21:49.882Z,14.62
2019-03-18T17:26:50.198Z,14.12
2019-03-18T17:31:54.179Z,16.16
2019-03-18T17:36:59.031Z,33.93
2019-03-18T17:42:05.835Z,15.79
2019-03-18T17:47:08.842Z,21.63
2019-03-18T17:52:13.575Z,16.80
2019-03-18T17:57:18.230Z,15.70
2019-03-18T18:02:25.576Z,14.32
2019-03-18T18:07:41.969Z,14.21
2019-03-18T18:12:38.607Z,11.69
2019-03-18T18:17:42.492Z,11.48
2019-03-18T18:23:14.339Z,12.27
2019-03-18T18:27:46.993Z,13.75
2019-03-18T18:32:48.881Z,13.51
2019-03-18T18:37:49.138Z,14.82
2019-03-18T18:42:54.642Z,12.74
2019-03-18T18:47:59.573Z,11.36
2019-03-18T18:53:03.683Z,20.32
2019-03-18T18:58:14.086Z,14.25
2019-03-18T19:03:13.211Z,11.81
2019-03-18T19:08:15.874Z,10.96
2019-03-18T19:13:24.321Z,15.30
2019-03-18T19:18:37.044Z,16.25
2019-03-18T19:23:37.951Z,13.09
2019-03-18T19:28:38.414Z,11.32
2019-03-18T19:33:49.649Z,10.88
2019-03-18T19:38:44.224Z,8.26
2019-03-18T19:43:52.310Z,13.25
2019-03-18T19:49:02.421Z,12.00
2019-03-18T19:54:02.328Z,9.92
2019-03-18T19:59:01.824Z,9.72
2019-03-18T20:04:08.671Z,12.70
2019-03-18T20:09:11.394Z,14.63
2019-03-18T20:14:15.872Z,13.12
2019-03-18T20:19:21.094Z,14.31
2019-03-18T20:24:19.934Z,12.96
2019-03-18T20:29:20.949Z,13.07
2019-03-18T20:34:24.568Z,14.64
2019-03-18T20:39:22.570Z,13.31
2019-03-18T20:44:38.736Z,12.55
2019-03-18T20:49:44.571Z,11.54
2019-03-18T20:54:52.935Z,15.50
2019-03-18T20:59:54.755Z,14.87
2019-03-18T21:05:00.979Z,35.93
2019-03-18T21:10:11.821Z,13.44
2019-03-18T21:15:15.436Z,12.26
2019-03-18T21:20:11.979Z,15.13
2019-03-18T21:25:19.377Z,16.61
2019-03-18T21:30:27.192Z,12.93
2019-03-18T21:35:31.742Z,11.82
2019-03-18T21:40:32.357Z,12.18
2019-03-18T21:45:33.825Z,8.92
2019-03-18T21:55:35.951Z,13.43
2019-03-18T22:00:42.257Z,10.95
2019-03-18T22:05:44.776Z,6.80
2019-03-18T22:10:47.107Z,13.22
2019-03-18T22:15:58.965Z,11.31
2019-03-18T22:20:48.573Z,12.77
2019-03-18T22:25:59.815Z,9.33
2019-03-18T22:31:04.318Z,11.62
2019-03-18T22:36:04.402Z,8.50
2019-03-18T22:41:18.629Z,9.46
2019-03-18T22:46:12.851Z,11.89
2019-03-18T22:51:14.834Z,13.50
2019-03-18T22:56:24.578Z,9.83
2019-03-18T23:01:25.973Z,10.65
2019-03-18T23:06:15.675Z,8.61
2019-03-18T23:11:22.812Z,12.49
2019-03-18T23:16:24.466Z,10.89
2019-03-18T23:21:32.333Z,8.99
2019-03-18T23:26:33.439Z,10.38
2019-03-18T23:31:36.488Z,12.99
2019-03-18T23:36:40.412Z,11.73
2019-03-18T23:41:41.072Z,10.23
2019-03-18T23:46:49.873Z,10.79
2019-03-18T23:51:50.806Z,11.53
2019-03-18T23:56:57.322Z,9.53
